Glenns, Virginia
Current Conditions -  °F | °C
As of 4:15 PM on Tuesday 21 Oct 2014 (Local Time) from KW75 Reporting Station
Broken Clouds Broken Clouds  
Wind Chill: 65°   Ceiling: 6000
Heat Index: 65°   Visibility: 10mi
Dew Point: 54°   Wind: 8mph
Humidity: 65%   Direction: 110°ESE
Pressure: 29.81"   Gusts: NA
Location:  37.5771°N, 76.6072°W
Report Text: KW75 212015Z AUTO 11007KT 10SM BKN060 BKN070 BKN100 19/12 A2981 RMK AO1 T01860120
Loading
Personal Weather Stations






























Interactive Weather Map
Tropical Storm Tracking
New forecast layout! Learn more

10-Day Weather Forecast

Advertisements
Track Severe Weather on mobile